sensor_id;sensor_type;location;lat;lon;timestamp;P1;durP1;ratioP1;P2;durP2;ratioP2
59181;SDS011;45293;44.606;21.176;2023-02-26T00:01:02;1.25;;;0.60;;
59181;SDS011;45293;44.606;21.176;2023-02-26T00:03:28;0.30;;;0.30;;
59181;SDS011;45293;44.606;21.176;2023-02-26T00:05:58;0.30;;;0.30;;
59181;SDS011;45293;44.606;21.176;2023-02-26T00:08:24;4.10;;;0.80;;
59181;SDS011;45293;44.606;21.176;2023-02-26T00:10:50;0.68;;;0.25;;
59181;SDS011;45293;44.606;21.176;2023-02-26T00:13:19;0.65;;;0.65;;
59181;SDS011;45293;44.606;21.176;2023-02-26T00:15:45;1.63;;;0.82;;
59181;SDS011;45293;44.606;21.176;2023-02-26T00:18:12;0.50;;;0.32;;
59181;SDS011;45293;44.606;21.176;2023-02-26T00:20:40;0.80;;;0.65;;
59181;SDS011;45293;44.606;21.176;2023-02-26T00:23:12;0.77;;;0.77;;
59181;SDS011;45293;44.606;21.176;2023-02-26T00:25:39;1.15;;;0.63;;
59181;SDS011;45293;44.606;21.176;2023-02-26T00:28:06;0.80;;;0.60;;
59181;SDS011;45293;44.606;21.176;2023-02-26T00:30:32;0.95;;;0.88;;
59181;SDS011;45293;44.606;21.176;2023-02-26T00:32:59;0.70;;;0.50;;
59181;SDS011;45293;44.606;21.176;2023-02-26T00:35:25;0.82;;;0.77;;
59181;SDS011;45293;44.606;21.176;2023-02-26T00:43:06;3.33;;;0.80;;
59181;SDS011;45293;44.606;21.176;2023-02-26T00:45:32;1.85;;;0.68;;
59181;SDS011;45293;44.606;21.176;2023-02-26T00:48:15;1.05;;;0.73;;
59181;SDS011;45293;44.606;21.176;2023-02-26T00:50:46;13.45;;;1.42;;
59181;SDS011;45293;44.606;21.176;2023-02-26T00:53:28;1.50;;;0.90;;
59181;SDS011;45293;44.606;21.176;2023-02-26T00:55:56;3.38;;;0.93;;
59181;SDS011;45293;44.606;21.176;2023-02-26T00:58:22;1.30;;;0.75;;
59181;SDS011;45293;44.606;21.176;2023-02-26T01:00:48;1.70;;;1.05;;
59181;SDS011;45293;44.606;21.176;2023-02-26T01:03:14;4.40;;;0.88;;
59181;SDS011;45293;44.606;21.176;2023-02-26T01:05:41;1.08;;;0.90;;
59181;SDS011;45293;44.606;21.176;2023-02-26T01:10:42;2.42;;;0.82;;
59181;SDS011;45293;44.606;21.176;2023-02-26T01:13:08;1.88;;;1.27;;
59181;SDS011;45293;44.606;21.176;2023-02-26T01:15:34;0.80;;;0.65;;
59181;SDS011;45293;44.606;21.176;2023-02-26T01:18:05;1.02;;;0.77;;
59181;SDS011;45293;44.606;21.176;2023-02-26T01:20:41;0.73;;;0.63;;
59181;SDS011;45293;44.606;21.176;2023-02-26T01:26:18;0.40;;;0.40;;
59181;SDS011;45293;44.606;21.176;2023-02-26T01:28:25;0.93;;;0.90;;
59181;SDS011;45293;44.606;21.176;2023-02-26T01:30:52;0.80;;;0.50;;
59181;SDS011;45293;44.606;21.176;2023-02-26T01:33:29;0.80;;;0.77;;
59181;SDS011;45293;44.606;21.176;2023-02-26T01:38:27;0.70;;;0.70;;
59181;SDS011;45293;44.606;21.176;2023-02-26T01:43:35;1.65;;;0.82;;
59181;SDS011;45293;44.606;21.176;2023-02-26T01:46:05;1.63;;;0.70;;
59181;SDS011;45293;44.606;21.176;2023-02-26T01:48:39;0.30;;;0.30;;
59181;SDS011;45293;44.606;21.176;2023-02-26T01:51:12;1.05;;;0.77;;
59181;SDS011;45293;44.606;21.176;2023-02-26T01:53:38;0.75;;;0.68;;
59181;SDS011;45293;44.606;21.176;2023-02-26T01:56:11;0.50;;;0.50;;
59181;SDS011;45293;44.606;21.176;2023-02-26T01:58:39;1.10;;;0.65;;
59181;SDS011;45293;44.606;21.176;2023-02-26T02:01:05;0.50;;;0.50;;
59181;SDS011;45293;44.606;21.176;2023-02-26T02:03:33;0.60;;;0.60;;
59181;SDS011;45293;44.606;21.176;2023-02-26T02:06:07;1.05;;;0.95;;
59181;SDS011;45293;44.606;21.176;2023-02-26T02:08:33;1.85;;;0.82;;
59181;SDS011;45293;44.606;21.176;2023-02-26T02:11:01;0.70;;;0.70;;
59181;SDS011;45293;44.606;21.176;2023-02-26T02:13:44;0.50;;;0.50;;
59181;SDS011;45293;44.606;21.176;2023-02-26T02:23:47;1.20;;;1.08;;
59181;SDS011;45293;44.606;21.176;2023-02-26T02:31:51;3.03;;;1.40;;
59181;SDS011;45293;44.606;21.176;2023-02-26T02:34:20;5.53;;;2.28;;
59181;SDS011;45293;44.606;21.176;2023-02-26T02:36:50;3.80;;;1.65;;
59181;SDS011;45293;44.606;21.176;2023-02-26T02:39:19;2.63;;;1.90;;
59181;SDS011;45293;44.606;21.176;2023-02-26T02:44:40;2.50;;;1.40;;
59181;SDS011;45293;44.606;21.176;2023-02-26T02:47:08;3.30;;;1.45;;
59181;SDS011;45293;44.606;21.176;2023-02-26T02:49:37;1.95;;;1.13;;
59181;SDS011;45293;44.606;21.176;2023-02-26T02:52:07;3.35;;;1.90;;
59181;SDS011;45293;44.606;21.176;2023-02-26T02:54:37;6.10;;;1.63;;
59181;SDS011;45293;44.606;21.176;2023-02-26T02:57:11;1.30;;;1.20;;
59181;SDS011;45293;44.606;21.176;2023-02-26T02:59:39;5.55;;;2.00;;
59181;SDS011;45293;44.606;21.176;2023-02-26T03:04:32;2.53;;;2.13;;
59181;SDS011;45293;44.606;21.176;2023-02-26T03:06:59;2.60;;;1.35;;
59181;SDS011;45293;44.606;21.176;2023-02-26T03:09:25;2.90;;;1.60;;
59181;SDS011;45293;44.606;21.176;2023-02-26T03:11:51;2.30;;;1.85;;
59181;SDS011;45293;44.606;21.176;2023-02-26T03:14:17;6.90;;;2.85;;
59181;SDS011;45293;44.606;21.176;2023-02-26T03:26:46;4.57;;;1.35;;
59181;SDS011;45293;44.606;21.176;2023-02-26T03:29:16;1.13;;;0.77;;
59181;SDS011;45293;44.606;21.176;2023-02-26T03:34:18;0.68;;;0.68;;
59181;SDS011;45293;44.606;21.176;2023-02-26T03:36:50;2.33;;;1.02;;
59181;SDS011;45293;44.606;21.176;2023-02-26T03:44:38;0.60;;;0.60;;
59181;SDS011;45293;44.606;21.176;2023-02-26T03:47:06;0.77;;;0.77;;
59181;SDS011;45293;44.606;21.176;2023-02-26T03:49:37;1.67;;;0.60;;
59181;SDS011;45293;44.606;21.176;2023-02-26T03:52:06;3.83;;;0.88;;
59181;SDS011;45293;44.606;21.176;2023-02-26T03:54:40;2.72;;;0.90;;
59181;SDS011;45293;44.606;21.176;2023-02-26T03:57:07;2.40;;;0.98;;
59181;SDS011;45293;44.606;21.176;2023-02-26T03:59:33;2.58;;;0.98;;
59181;SDS011;45293;44.606;21.176;2023-02-26T04:02:16;2.15;;;0.90;;
59181;SDS011;45293;44.606;21.176;2023-02-26T04:07:13;1.67;;;0.63;;
59181;SDS011;45293;44.606;21.176;2023-02-26T04:09:41;2.85;;;0.95;;
59181;SDS011;45293;44.606;21.176;2023-02-26T04:12:07;1.38;;;0.95;;
59181;SDS011;45293;44.606;21.176;2023-02-26T04:14:33;2.20;;;1.27;;
59181;SDS011;45293;44.606;21.176;2023-02-26T04:16:59;1.95;;;1.30;;
59181;SDS011;45293;44.606;21.176;2023-02-26T04:19:26;1.10;;;0.95;;
59181;SDS011;45293;44.606;21.176;2023-02-26T04:22:17;2.00;;;0.93;;
59181;SDS011;45293;44.606;21.176;2023-02-26T04:25:23;5.35;;;1.38;;
59181;SDS011;45293;44.606;21.176;2023-02-26T04:30:57;2.00;;;1.25;;
59181;SDS011;45293;44.606;21.176;2023-02-26T04:33:27;2.15;;;1.60;;
59181;SDS011;45293;44.606;21.176;2023-02-26T04:36:03;1.98;;;1.20;;
59181;SDS011;45293;44.606;21.176;2023-02-26T04:38:32;1.05;;;0.85;;
59181;SDS011;45293;44.606;21.176;2023-02-26T04:41:00;2.22;;;1.42;;
59181;SDS011;45293;44.606;21.176;2023-02-26T04:43:26;3.50;;;1.35;;
59181;SDS011;45293;44.606;21.176;2023-02-26T04:45:52;1.38;;;1.27;;
59181;SDS011;45293;44.606;21.176;2023-02-26T04:48:20;1.58;;;1.33;;
59181;SDS011;45293;44.606;21.176;2023-02-26T04:50:47;2.15;;;1.40;;
59181;SDS011;45293;44.606;21.176;2023-02-26T04:53:13;3.17;;;1.55;;
59181;SDS011;45293;44.606;21.176;2023-02-26T04:55:49;3.05;;;1.58;;
59181;SDS011;45293;44.606;21.176;2023-02-26T04:58:17;3.88;;;1.77;;
59181;SDS011;45293;44.606;21.176;2023-02-26T05:00:46;2.80;;;1.63;;
59181;SDS011;45293;44.606;21.176;2023-02-26T05:03:12;2.83;;;1.63;;
59181;SDS011;45293;44.606;21.176;2023-02-26T05:05:38;2.05;;;1.65;;
59181;SDS011;45293;44.606;21.176;2023-02-26T05:08:06;2.25;;;1.48;;
59181;SDS011;45293;44.606;21.176;2023-02-26T05:10:32;2.55;;;1.55;;
59181;SDS011;45293;44.606;21.176;2023-02-26T05:12:58;3.35;;;1.88;;
59181;SDS011;45293;44.606;21.176;2023-02-26T05:15:26;3.35;;;1.77;;
59181;SDS011;45293;44.606;21.176;2023-02-26T05:17:53;3.65;;;1.92;;
59181;SDS011;45293;44.606;21.176;2023-02-26T05:20:20;2.45;;;1.40;;
59181;SDS011;45293;44.606;21.176;2023-02-26T05:22:48;1.95;;;1.20;;
59181;SDS011;45293;44.606;21.176;2023-02-26T05:25:14;3.08;;;1.80;;
59181;SDS011;45293;44.606;21.176;2023-02-26T05:27:41;1.83;;;1.08;;
59181;SDS011;45293;44.606;21.176;2023-02-26T05:30:08;2.78;;;1.80;;
59181;SDS011;45293;44.606;21.176;2023-02-26T05:32:34;3.78;;;2.28;;
59181;SDS011;45293;44.606;21.176;2023-02-26T05:35:00;2.05;;;1.50;;
59181;SDS011;45293;44.606;21.176;2023-02-26T05:37:26;2.95;;;1.75;;
59181;SDS011;45293;44.606;21.176;2023-02-26T05:39:52;3.58;;;1.77;;
59181;SDS011;45293;44.606;21.176;2023-02-26T05:42:19;3.22;;;1.65;;
59181;SDS011;45293;44.606;21.176;2023-02-26T05:44:45;3.05;;;1.60;;
59181;SDS011;45293;44.606;21.176;2023-02-26T05:47:29;5.55;;;2.58;;
59181;SDS011;45293;44.606;21.176;2023-02-26T05:50:25;3.13;;;1.73;;
59181;SDS011;45293;44.606;21.176;2023-02-26T05:52:52;3.65;;;1.73;;
59181;SDS011;45293;44.606;21.176;2023-02-26T05:55:24;3.10;;;1.77;;
59181;SDS011;45293;44.606;21.176;2023-02-26T05:57:53;6.70;;;2.30;;
59181;SDS011;45293;44.606;21.176;2023-02-26T06:00:19;2.92;;;2.05;;
59181;SDS011;45293;44.606;21.176;2023-02-26T06:02:45;5.28;;;2.85;;
59181;SDS011;45293;44.606;21.176;2023-02-26T06:05:12;2.50;;;1.50;;
59181;SDS011;45293;44.606;21.176;2023-02-26T06:07:38;4.63;;;2.35;;
59181;SDS011;45293;44.606;21.176;2023-02-26T06:10:06;3.95;;;2.20;;
59181;SDS011;45293;44.606;21.176;2023-02-26T06:12:33;2.80;;;1.70;;
59181;SDS011;45293;44.606;21.176;2023-02-26T06:14:59;4.18;;;2.13;;
59181;SDS011;45293;44.606;21.176;2023-02-26T06:17:26;5.80;;;2.58;;
59181;SDS011;45293;44.606;21.176;2023-02-26T06:19:53;3.50;;;1.73;;
59181;SDS011;45293;44.606;21.176;2023-02-26T06:22:19;4.22;;;1.75;;
59181;SDS011;45293;44.606;21.176;2023-02-26T06:24:46;4.43;;;1.70;;
59181;SDS011;45293;44.606;21.176;2023-02-26T06:27:13;3.70;;;2.10;;
59181;SDS011;45293;44.606;21.176;2023-02-26T06:44:26;5.55;;;2.45;;
59181;SDS011;45293;44.606;21.176;2023-02-26T06:50:30;4.93;;;2.55;;
59181;SDS011;45293;44.606;21.176;2023-02-26T07:29:35;8.93;;;2.88;;
59181;SDS011;45293;44.606;21.176;2023-02-26T07:32:01;5.70;;;3.08;;
59181;SDS011;45293;44.606;21.176;2023-02-26T07:34:27;5.97;;;3.55;;
59181;SDS011;45293;44.606;21.176;2023-02-26T07:36:54;8.15;;;3.35;;
59181;SDS011;45293;44.606;21.176;2023-02-26T07:39:20;3.58;;;2.30;;
59181;SDS011;45293;44.606;21.176;2023-02-26T07:41:47;4.90;;;2.05;;
59181;SDS011;45293;44.606;21.176;2023-02-26T07:44:13;5.88;;;2.75;;
59181;SDS011;45293;44.606;21.176;2023-02-26T07:46:39;7.60;;;3.17;;
59181;SDS011;45293;44.606;21.176;2023-02-26T07:49:05;5.68;;;2.95;;
59181;SDS011;45293;44.606;21.176;2023-02-26T07:51:31;6.57;;;3.22;;
59181;SDS011;45293;44.606;21.176;2023-02-26T07:54:03;6.18;;;3.35;;
59181;SDS011;45293;44.606;21.176;2023-02-26T07:56:47;5.78;;;3.38;;
59181;SDS011;45293;44.606;21.176;2023-02-26T07:59:14;5.38;;;3.42;;
59181;SDS011;45293;44.606;21.176;2023-02-26T08:01:40;8.77;;;3.95;;
59181;SDS011;45293;44.606;21.176;2023-02-26T08:04:07;10.68;;;4.68;;
59181;SDS011;45293;44.606;21.176;2023-02-26T08:06:34;9.25;;;5.28;;
59181;SDS011;45293;44.606;21.176;2023-02-26T08:09:01;14.52;;;6.10;;
59181;SDS011;45293;44.606;21.176;2023-02-26T08:11:31;9.45;;;5.45;;
59181;SDS011;45293;44.606;21.176;2023-02-26T08:17:00;11.65;;;5.05;;
59181;SDS011;45293;44.606;21.176;2023-02-26T08:19:32;12.57;;;6.32;;
59181;SDS011;45293;44.606;21.176;2023-02-26T08:22:03;11.13;;;5.45;;
59181;SDS011;45293;44.606;21.176;2023-02-26T08:24:32;13.90;;;7.43;;
59181;SDS011;45293;44.606;21.176;2023-02-26T08:27:11;7.85;;;4.68;;
59181;SDS011;45293;44.606;21.176;2023-02-26T09:00:54;8.85;;;4.47;;
59181;SDS011;45293;44.606;21.176;2023-02-26T09:03:21;8.68;;;4.32;;
59181;SDS011;45293;44.606;21.176;2023-02-26T09:05:47;10.70;;;4.65;;
59181;SDS011;45293;44.606;21.176;2023-02-26T09:08:13;9.05;;;5.10;;
59181;SDS011;45293;44.606;21.176;2023-02-26T09:10:40;11.32;;;5.18;;
59181;SDS011;45293;44.606;21.176;2023-02-26T09:15:37;9.88;;;5.30;;
59181;SDS011;45293;44.606;21.176;2023-02-26T09:18:04;8.75;;;4.88;;
59181;SDS011;45293;44.606;21.176;2023-02-26T09:20:30;8.07;;;4.78;;
59181;SDS011;45293;44.606;21.176;2023-02-26T09:25:32;5.97;;;3.50;;
59181;SDS011;45293;44.606;21.176;2023-02-26T09:27:59;14.95;;;5.20;;
59181;SDS011;45293;44.606;21.176;2023-02-26T09:30:26;11.10;;;5.90;;
59181;SDS011;45293;44.606;21.176;2023-02-26T09:32:55;12.23;;;5.10;;
59181;SDS011;45293;44.606;21.176;2023-02-26T09:35:28;11.38;;;5.15;;
59181;SDS011;45293;44.606;21.176;2023-02-26T09:38:25;9.27;;;5.68;;
59181;SDS011;45293;44.606;21.176;2023-02-26T09:41:37;12.63;;;5.80;;
59181;SDS011;45293;44.606;21.176;2023-02-26T09:44:15;10.18;;;5.30;;
59181;SDS011;45293;44.606;21.176;2023-02-26T09:46:53;8.77;;;5.28;;
59181;SDS011;45293;44.606;21.176;2023-02-26T09:53:09;9.18;;;5.18;;
59181;SDS011;45293;44.606;21.176;2023-02-26T09:55:41;11.75;;;5.57;;
59181;SDS011;45293;44.606;21.176;2023-02-26T09:58:18;19.05;;;6.90;;
59181;SDS011;45293;44.606;21.176;2023-02-26T10:06:11;19.92;;;8.27;;
59181;SDS011;45293;44.606;21.176;2023-02-26T10:30:21;19.05;;;8.45;;
59181;SDS011;45293;44.606;21.176;2023-02-26T10:33:13;16.30;;;8.95;;
59181;SDS011;45293;44.606;21.176;2023-02-26T10:35:52;13.52;;;6.65;;
59181;SDS011;45293;44.606;21.176;2023-02-26T10:38:23;18.63;;;8.35;;
59181;SDS011;45293;44.606;21.176;2023-02-26T10:40:52;18.27;;;9.07;;
59181;SDS011;45293;44.606;21.176;2023-02-26T10:43:27;13.27;;;8.02;;
59181;SDS011;45293;44.606;21.176;2023-02-26T10:46:09;15.35;;;7.50;;
59181;SDS011;45293;44.606;21.176;2023-02-26T10:49:06;18.02;;;8.52;;
59181;SDS011;45293;44.606;21.176;2023-02-26T10:54:20;18.42;;;9.10;;
59181;SDS011;45293;44.606;21.176;2023-02-26T10:56:47;19.42;;;9.52;;
59181;SDS011;45293;44.606;21.176;2023-02-26T10:59:14;16.95;;;10.05;;
59181;SDS011;45293;44.606;21.176;2023-02-26T11:01:40;18.48;;;9.90;;
59181;SDS011;45293;44.606;21.176;2023-02-26T11:04:17;22.38;;;10.15;;
59181;SDS011;45293;44.606;21.176;2023-02-26T11:06:56;21.35;;;11.27;;
59181;SDS011;45293;44.606;21.176;2023-02-26T11:09:28;24.42;;;9.70;;
59181;SDS011;45293;44.606;21.176;2023-02-26T11:14:32;19.85;;;9.98;;
59181;SDS011;45293;44.606;21.176;2023-02-26T11:17:20;14.52;;;9.00;;
59181;SDS011;45293;44.606;21.176;2023-02-26T11:19:56;18.55;;;11.07;;
59181;SDS011;45293;44.606;21.176;2023-02-26T11:22:28;15.05;;;8.75;;
59181;SDS011;45293;44.606;21.176;2023-02-26T11:24:55;15.77;;;8.25;;
59181;SDS011;45293;44.606;21.176;2023-02-26T11:27:40;15.45;;;8.95;;
59181;SDS011;45293;44.606;21.176;2023-02-26T11:30:17;19.88;;;10.32;;
59181;SDS011;45293;44.606;21.176;2023-02-26T11:32:44;17.95;;;8.68;;
59181;SDS011;45293;44.606;21.176;2023-02-26T11:35:13;12.38;;;7.75;;
59181;SDS011;45293;44.606;21.176;2023-02-26T11:37:41;13.93;;;8.25;;
59181;SDS011;45293;44.606;21.176;2023-02-26T11:40:23;13.00;;;8.23;;
59181;SDS011;45293;44.606;21.176;2023-02-26T11:42:52;9.50;;;6.15;;
59181;SDS011;45293;44.606;21.176;2023-02-26T11:45:19;11.20;;;6.20;;
59181;SDS011;45293;44.606;21.176;2023-02-26T11:53:09;10.90;;;7.18;;
59181;SDS011;45293;44.606;21.176;2023-02-26T11:55:45;10.50;;;6.50;;
59181;SDS011;45293;44.606;21.176;2023-02-26T11:58:17;13.07;;;7.60;;
59181;SDS011;45293;44.606;21.176;2023-02-26T12:00:43;11.85;;;6.70;;
59181;SDS011;45293;44.606;21.176;2023-02-26T12:03:15;10.40;;;6.80;;
59181;SDS011;45293;44.606;21.176;2023-02-26T12:05:41;12.32;;;6.30;;
59181;SDS011;45293;44.606;21.176;2023-02-26T12:16:16;12.07;;;6.80;;
59181;SDS011;45293;44.606;21.176;2023-02-26T12:19:12;12.55;;;7.18;;
59181;SDS011;45293;44.606;21.176;2023-02-26T12:51:10;17.92;;;9.52;;
59181;SDS011;45293;44.606;21.176;2023-02-26T12:58:55;22.90;;;10.55;;
59181;SDS011;45293;44.606;21.176;2023-02-26T13:04:17;18.30;;;10.13;;
59181;SDS011;45293;44.606;21.176;2023-02-26T13:09:32;20.25;;;9.00;;
59181;SDS011;45293;44.606;21.176;2023-02-26T13:14:33;15.88;;;9.52;;
59181;SDS011;45293;44.606;21.176;2023-02-26T13:17:02;24.25;;;12.15;;
59181;SDS011;45293;44.606;21.176;2023-02-26T13:32:43;28.25;;;14.82;;
59181;SDS011;45293;44.606;21.176;2023-02-26T13:35:17;27.52;;;16.63;;
59181;SDS011;45293;44.606;21.176;2023-02-26T13:37:50;35.33;;;15.77;;
59181;SDS011;45293;44.606;21.176;2023-02-26T13:40:28;26.38;;;14.57;;
59181;SDS011;45293;44.606;21.176;2023-02-26T13:48:12;37.67;;;18.65;;
59181;SDS011;45293;44.606;21.176;2023-02-26T13:56:06;44.25;;;21.40;;
59181;SDS011;45293;44.606;21.176;2023-02-26T13:58:41;42.17;;;19.95;;
59181;SDS011;45293;44.606;21.176;2023-02-26T14:01:19;39.85;;;19.65;;
59181;SDS011;45293;44.606;21.176;2023-02-26T14:06:41;35.05;;;16.83;;
59181;SDS011;45293;44.606;21.176;2023-02-26T14:12:29;35.47;;;18.27;;
59181;SDS011;45293;44.606;21.176;2023-02-26T14:15:48;44.58;;;20.98;;
59181;SDS011;45293;44.606;21.176;2023-02-26T14:18:01;31.42;;;17.23;;
59181;SDS011;45293;44.606;21.176;2023-02-26T14:20:33;36.45;;;16.20;;
59181;SDS011;45293;44.606;21.176;2023-02-26T14:25:36;29.98;;;15.43;;
59181;SDS011;45293;44.606;21.176;2023-02-26T14:34:42;22.50;;;12.13;;
59181;SDS011;45293;44.606;21.176;2023-02-26T14:40:05;28.52;;;15.10;;
59181;SDS011;45293;44.606;21.176;2023-02-26T14:42:41;23.58;;;13.70;;
59181;SDS011;45293;44.606;21.176;2023-02-26T14:45:27;33.95;;;18.13;;
59181;SDS011;45293;44.606;21.176;2023-02-26T14:48:00;31.63;;;18.73;;
59181;SDS011;45293;44.606;21.176;2023-02-26T14:51:02;25.30;;;16.45;;
59181;SDS011;45293;44.606;21.176;2023-02-26T14:56:29;30.77;;;17.05;;
59181;SDS011;45293;44.606;21.176;2023-02-26T14:59:45;30.50;;;15.07;;
59181;SDS011;45293;44.606;21.176;2023-02-26T15:02:23;29.02;;;14.15;;
59181;SDS011;45293;44.606;21.176;2023-02-26T15:05:16;21.00;;;12.07;;
59181;SDS011;45293;44.606;21.176;2023-02-26T15:08:00;22.13;;;13.55;;
59181;SDS011;45293;44.606;21.176;2023-02-26T15:16:16;21.60;;;10.52;;
59181;SDS011;45293;44.606;21.176;2023-02-26T15:24:07;21.75;;;12.35;;
59181;SDS011;45293;44.606;21.176;2023-02-26T15:26:44;19.92;;;11.98;;
59181;SDS011;45293;44.606;21.176;2023-02-26T15:29:13;21.27;;;11.88;;
59181;SDS011;45293;44.606;21.176;2023-02-26T15:31:40;19.73;;;12.18;;
59181;SDS011;45293;44.606;21.176;2023-02-26T15:34:13;19.88;;;11.27;;
59181;SDS011;45293;44.606;21.176;2023-02-26T15:36:49;21.17;;;12.77;;
59181;SDS011;45293;44.606;21.176;2023-02-26T15:39:16;22.48;;;13.13;;
59181;SDS011;45293;44.606;21.176;2023-02-26T15:41:47;36.53;;;17.15;;
59181;SDS011;45293;44.606;21.176;2023-02-26T15:44:18;34.47;;;17.33;;
59181;SDS011;45293;44.606;21.176;2023-02-26T15:46:46;36.53;;;16.40;;
59181;SDS011;45293;44.606;21.176;2023-02-26T15:52:06;61.85;;;25.17;;
59181;SDS011;45293;44.606;21.176;2023-02-26T15:54:34;29.45;;;16.70;;
59181;SDS011;45293;44.606;21.176;2023-02-26T15:57:02;35.22;;;16.05;;
59181;SDS011;45293;44.606;21.176;2023-02-26T15:59:30;29.05;;;15.57;;
59181;SDS011;45293;44.606;21.176;2023-02-26T16:02:00;27.50;;;15.25;;
59181;SDS011;45293;44.606;21.176;2023-02-26T16:04:26;24.75;;;13.38;;
59181;SDS011;45293;44.606;21.176;2023-02-26T16:06:54;30.20;;;16.33;;
59181;SDS011;45293;44.606;21.176;2023-02-26T16:11:51;24.80;;;13.82;;
59181;SDS011;45293;44.606;21.176;2023-02-26T16:14:21;34.22;;;14.70;;
59181;SDS011;45293;44.606;21.176;2023-02-26T16:16:51;24.10;;;13.68;;
59181;SDS011;45293;44.606;21.176;2023-02-26T16:19:26;26.95;;;14.48;;
59181;SDS011;45293;44.606;21.176;2023-02-26T16:21:55;23.45;;;13.48;;
59181;SDS011;45293;44.606;21.176;2023-02-26T16:24:24;26.33;;;14.55;;
59181;SDS011;45293;44.606;21.176;2023-02-26T16:26:52;23.38;;;13.75;;
59181;SDS011;45293;44.606;21.176;2023-02-26T16:29:24;24.52;;;13.90;;
59181;SDS011;45293;44.606;21.176;2023-02-26T16:31:51;22.73;;;14.38;;
59181;SDS011;45293;44.606;21.176;2023-02-26T16:36:52;27.88;;;15.90;;
59181;SDS011;45293;44.606;21.176;2023-02-26T16:39:23;27.52;;;15.55;;
59181;SDS011;45293;44.606;21.176;2023-02-26T16:42:13;24.50;;;14.57;;
59181;SDS011;45293;44.606;21.176;2023-02-26T16:55:02;22.83;;;13.23;;
59181;SDS011;45293;44.606;21.176;2023-02-26T16:57:42;19.77;;;12.13;;
59181;SDS011;45293;44.606;21.176;2023-02-26T17:00:25;20.48;;;11.75;;
59181;SDS011;45293;44.606;21.176;2023-02-26T17:03:15;18.75;;;10.98;;
59181;SDS011;45293;44.606;21.176;2023-02-26T20:06:38;5.70;;;3.30;;
59181;SDS011;45293;44.606;21.176;2023-02-26T20:52:41;5.95;;;3.95;;
59181;SDS011;45293;44.606;21.176;2023-02-26T20:55:07;4.53;;;2.83;;
59181;SDS011;45293;44.606;21.176;2023-02-26T21:05:22;8.50;;;4.55;;
59181;SDS011;45293;44.606;21.176;2023-02-26T21:26:22;10.73;;;5.50;;
59181;SDS011;45293;44.606;21.176;2023-02-26T22:22:45;7.93;;;5.38;;
59181;SDS011;45293;44.606;21.176;2023-02-26T22:25:11;9.70;;;5.63;;
59181;SDS011;45293;44.606;21.176;2023-02-26T22:27:37;8.38;;;4.75;;
59181;SDS011;45293;44.606;21.176;2023-02-26T22:30:05;7.57;;;5.05;;
59181;SDS011;45293;44.606;21.176;2023-02-26T22:32:32;7.65;;;4.68;;
59181;SDS011;45293;44.606;21.176;2023-02-26T22:34:59;11.05;;;6.15;;
59181;SDS011;45293;44.606;21.176;2023-02-26T22:37:27;11.35;;;5.45;;
59181;SDS011;45293;44.606;21.176;2023-02-26T22:39:54;12.43;;;6.25;;
59181;SDS011;45293;44.606;21.176;2023-02-26T22:42:21;9.13;;;5.70;;
59181;SDS011;45293;44.606;21.176;2023-02-26T22:44:47;12.75;;;7.15;;
59181;SDS011;45293;44.606;21.176;2023-02-26T22:47:16;12.82;;;7.53;;
59181;SDS011;45293;44.606;21.176;2023-02-26T22:49:42;12.80;;;7.57;;
59181;SDS011;45293;44.606;21.176;2023-02-26T22:52:18;16.63;;;9.05;;
59181;SDS011;45293;44.606;21.176;2023-02-26T22:54:45;14.68;;;8.20;;
59181;SDS011;45293;44.606;21.176;2023-02-26T22:57:13;18.08;;;9.75;;
59181;SDS011;45293;44.606;21.176;2023-02-26T22:59:40;20.20;;;10.20;;
59181;SDS011;45293;44.606;21.176;2023-02-26T23:29:25;26.33;;;13.80;;
59181;SDS011;45293;44.606;21.176;2023-02-26T23:31:52;21.83;;;13.40;;
59181;SDS011;45293;44.606;21.176;2023-02-26T23:49:55;17.85;;;9.65;;
59181;SDS011;45293;44.606;21.176;2023-02-26T23:53:00;16.20;;;8.98;;
59181;SDS011;45293;44.606;21.176;2023-02-26T23:55:37;16.02;;;8.35;;
59181;SDS011;45293;44.606;21.176;2023-02-26T23:58:19;16.77;;;8.90;;
